Time;durP1;ratioP1;P1;durP2;ratioP2;P2;SDS_P1;SDS_P2;PMS_P1;PMS_P2;Temp;Humidity;BMP_temperature;BMP_pressure;BME280_temperature;BME280_humidity;BME280_pressure;Samples;Min_cycle;Max_cycle;Signal;HPM_P1;HPM_P2
2023/04/07 00:01:53;;;;;;;23.90;14.87;;;;;;;5.83;59.50;99536.91;4366998;32;20146;-85
2023/04/07 00:04:19;;;;;;;22.80;13.95;;;;;;;5.80;59.50;99529.22;4352222;32;20146;-84
2023/04/07 00:06:44;;;;;;;24.10;14.48;;;;;;;5.98;59.52;99523.78;4378704;32;20090;-84
2023/04/07 00:09:10;;;;;;;26.30;14.98;;;;;;;5.83;59.51;99522.28;4379531;32;20523;-85
2023/04/07 00:11:36;;;;;;;26.30;14.52;;;;;;;5.70;59.50;99518.19;4351971;32;20159;-85
2023/04/07 00:14:02;;;;;;;25.62;14.65;;;;;;;5.74;59.50;99527.59;4379243;32;20098;-83
2023/04/07 00:16:27;;;;;;;28.67;15.13;;;;;;;5.97;59.51;99518.66;4366775;32;20090;-84
2023/04/07 00:18:52;;;;;;;25.67;14.20;;;;;;;5.73;59.50;99517.28;4351699;32;21873;-84
2023/04/07 00:21:18;;;;;;;24.48;14.77;;;;;;;5.77;59.51;99522.38;4372730;32;23719;-83
2023/04/07 00:23:43;;;;;;;26.02;14.57;;;;;;;5.72;59.50;99524.19;4376604;32;20153;-84
2023/04/07 00:26:09;;;;;;;26.10;15.50;;;;;;;5.76;59.51;99523.25;4351654;32;20178;-84
2023/04/07 00:28:34;;;;;;;26.20;15.27;;;;;;;5.85;59.51;99522.25;4364005;32;20365;-83
2023/04/07 00:31:00;;;;;;;25.45;15.05;;;;;;;5.63;59.50;99519.16;4362341;32;20186;-83
2023/04/07 00:33:25;;;;;;;29.23;15.00;;;;;;;5.58;59.49;99520.97;4386212;32;20458;-83
2023/04/07 00:35:51;;;;;;;25.40;14.75;;;;;;;5.73;59.50;99512.13;4379204;32;20101;-83
2023/04/07 00:38:16;;;;;;;25.60;14.63;;;;;;;5.66;59.49;99511.34;4379347;32;20098;-84
2023/04/07 00:40:41;;;;;;;29.35;15.23;;;;;;;5.80;59.50;99509.41;4379044;32;20131;-84
2023/04/07 00:43:07;;;;;;;24.48;14.75;;;;;;;5.71;59.50;99516.47;4379279;32;20161;-83
2023/04/07 00:45:32;;;;;;;24.90;14.20;;;;;;;5.89;59.51;99510.12;4379017;32;20091;-84
2023/04/07 00:47:58;;;;;;;26.65;14.77;;;;;;;5.98;59.51;99512.59;4366554;32;20147;-83
2023/04/07 00:50:23;;;;;;;21.90;14.05;;;;;;;5.79;59.50;99504.28;4378481;32;20579;-83
2023/04/07 00:52:49;;;;;;;25.50;14.30;;;;;;;5.97;59.52;99508.31;4378519;32;27201;-85
2023/04/07 00:55:14;;;;;;;26.00;14.23;;;;;;;5.97;59.52;99506.59;4378745;32;20094;-86
2023/04/07 00:57:40;;;;;;;24.65;14.50;;;;;;;6.00;59.52;99497.94;4366481;32;20130;-85
2023/04/07 01:00:06;;;;;;;24.48;14.38;;;;;;;5.87;59.51;99502.41;4366376;32;20178;-83
2023/04/07 01:02:41;;;;;;;26.83;14.90;;;;;;;5.93;59.51;99498.91;4378921;32;20113;-83
2023/04/07 01:05:17;;;;;;;24.27;14.43;;;;;;;5.92;59.51;99495.47;4379006;32;20120;-83
2023/04/07 01:07:57;;;;;;;26.12;13.88;;;;;;;5.97;59.51;99490.22;4366273;32;20121;-83
2023/04/07 01:10:26;;;;;;;;;;;;;;;5.73;59.50;99491.47;4368002;32;20103;-83
2023/04/07 01:13:01;;;;;;;27.08;14.23;;;;;;;5.91;59.52;99488.59;4390113;32;20092;-82
2023/04/07 01:15:27;;;;;;;24.00;15.00;;;;;;;5.91;59.52;99482.56;4378501;32;20120;-82
2023/04/07 01:17:56;;;;;;;25.35;14.65;;;;;;;5.81;59.50;99487.00;4365738;32;20394;-83
2023/04/07 01:20:22;;;;;;;27.30;14.93;;;;;;;5.90;59.52;99481.72;4366423;32;20115;-83
2023/04/07 01:22:55;;;;;;;27.20;15.38;;;;;;;5.92;59.51;99481.72;4372852;32;188834;-83
2023/04/07 01:25:46;;;;;;;24.23;14.98;;;;;;;5.73;59.50;99479.41;4366134;32;20486;-83
2023/04/07 01:28:43;;;;;;;32.20;16.00;;;;;;;6.02;59.52;99481.50;4362767;32;20108;-84
2023/04/07 01:31:08;;;;;;;25.12;13.85;;;;;;;6.03;59.52;99477.19;4378259;32;20137;-83
2023/04/07 01:33:34;;;;;;;23.90;14.07;;;;;;;5.94;59.51;99482.53;4365773;32;20110;-84
2023/04/07 01:36:00;;;;;;;24.58;13.82;;;;;;;5.91;59.52;99473.09;4365806;32;20118;-84
2023/04/07 01:38:25;;;;;;;27.55;14.77;;;;;;;5.79;59.50;99474.13;4366197;32;20126;-84
2023/04/07 01:40:51;;;;;;;30.55;15.07;;;;;;;6.01;59.52;99469.47;4366268;32;32499;-84
2023/04/07 01:43:16;;;;;;;22.00;13.48;;;;;;;5.91;59.52;99474.81;4355089;32;22204;-85
2023/04/07 01:45:42;;;;;;;26.92;14.13;;;;;;;6.10;59.52;99471.88;4367606;32;20114;-85
2023/04/07 01:48:07;;;;;;;22.25;13.65;;;;;;;6.15;59.53;99467.50;4368312;32;20094;-84
2023/04/07 01:50:33;;;;;;;25.37;14.02;;;;;;;6.21;59.53;99474.28;4353027;32;20133;-85
2023/04/07 01:52:58;;;;;;;23.38;13.18;;;;;;;6.12;59.52;99469.25;4377888;32;20459;-84
2023/04/07 01:55:24;;;;;;;25.83;14.27;;;;;;;6.29;59.53;99469.81;4375724;32;20118;-85
2023/04/07 01:57:49;;;;;;;21.73;13.62;;;;;;;6.13;59.53;99471.81;4352852;32;20448;-85
2023/04/07 02:00:15;;;;;;;23.73;14.23;;;;;;;6.01;59.52;99476.38;4378726;32;20447;-86
2023/04/07 02:02:41;;;;;;;22.77;13.73;;;;;;;6.03;59.52;99469.44;4367849;32;20474;-86
2023/04/07 02:05:08;;;;;;;22.58;13.23;;;;;;;6.05;59.51;99475.44;4367667;32;20091;-87
2023/04/07 02:07:53;;;;;;;21.08;13.23;;;;;;;6.09;59.52;99469.31;4367755;32;20113;-85
2023/04/07 02:10:22;;;;;;;22.85;13.73;;;;;;;6.19;59.52;99478.62;4370572;32;20415;-86
2023/04/07 02:12:48;;;;;;;23.67;13.00;;;;;;;6.12;59.52;99471.84;4353799;32;20169;-86
2023/04/07 02:15:13;;;;;;;25.27;13.27;;;;;;;6.06;59.52;99472.81;4367672;32;20109;-86
2023/04/07 02:17:40;;;;;;;24.42;13.43;;;;;;;6.06;59.52;99471.97;4366946;32;27291;-86
2023/04/07 02:20:07;;;;;;;19.80;13.52;;;;;;;6.09;59.52;99472.75;4368013;32;20106;-86
2023/04/07 02:22:32;;;;;;;23.77;14.20;;;;;;;6.06;59.52;99470.25;4367812;32;20470;-87
2023/04/07 02:24:57;;;;;;;21.05;13.30;;;;;;;6.11;59.52;99464.97;4352493;32;20128;-87
2023/04/07 02:27:23;;;;;;;22.27;13.90;;;;;;;6.05;59.51;99465.09;4377788;32;20113;-86
2023/04/07 02:29:48;;;;;;;19.67;13.35;;;;;;;5.82;59.50;99475.81;4367072;32;28016;-86
2023/04/07 02:32:13;;;;;;;22.37;13.25;;;;;;;5.76;59.51;99474.19;4353079;32;31843;-85
2023/04/07 02:34:39;;;;;;;24.33;12.45;;;;;;;5.90;59.51;99475.69;4367478;32;20098;-86
2023/04/07 02:37:05;;;;;;;28.87;13.10;;;;;;;5.78;59.51;99472.44;4353246;32;23319;-86
2023/04/07 02:39:30;;;;;;;24.65;14.30;;;;;;;5.84;59.52;99471.47;4379740;32;20133;-84
2023/04/07 02:41:56;;;;;;;23.58;13.52;;;;;;;5.77;59.51;99472.47;4367563;32;20106;-84
2023/04/07 02:44:21;;;;;;;22.87;13.32;;;;;;;5.66;59.49;99467.44;4379743;32;20449;-85
2023/04/07 02:46:46;;;;;;;22.10;13.10;;;;;;;5.71;59.50;99473.41;4393617;32;20127;-85
2023/04/07 02:49:12;;;;;;;21.23;13.20;;;;;;;5.71;59.50;99470.84;4379744;32;27698;-85
2023/04/07 02:51:37;;;;;;;22.65;13.40;;;;;;;5.56;59.49;99465.91;4366826;32;24266;-85
2023/04/07 02:54:03;;;;;;;19.98;11.75;;;;;;;5.45;59.48;99475.56;4351710;32;36722;-85
2023/04/07 02:56:28;;;;;;;24.83;14.07;;;;;;;5.40;59.49;99472.19;4378302;32;20095;-85
2023/04/07 02:58:54;;;;;;;22.83;13.60;;;;;;;5.55;59.49;99477.97;4379681;32;20130;-84
2023/04/07 03:01:19;;;;;;;27.58;14.80;;;;;;;5.47;59.49;99472.09;4367462;32;20193;-83
2023/04/07 03:03:46;;;;;;;24.60;14.25;;;;;;;5.30;59.47;99468.91;4379928;32;20154;-84
2023/04/07 03:06:12;;;;;;;26.02;14.20;;;;;;;5.29;59.47;99471.50;4367414;32;20501;-83
2023/04/07 03:08:37;;;;;;;22.95;14.25;;;;;;;5.38;59.47;99472.22;4379783;32;20110;-85
2023/04/07 03:11:03;;;;;;;23.30;13.40;;;;;;;5.42;59.48;99473.88;4366936;32;20098;-84
2023/04/07 03:13:29;;;;;;;23.55;14.68;;;;;;;5.29;59.47;99474.09;4379997;32;20141;-84
2023/04/07 03:15:55;;;;;;;27.13;14.77;;;;;;;5.50;59.49;99471.19;4367475;32;20149;-84
2023/04/07 03:18:21;;;;;;;25.33;14.30;;;;;;;5.35;59.48;99476.56;4367611;32;20126;-85
2023/04/07 03:20:47;;;;;;;25.35;14.02;;;;;;;5.42;59.48;99467.84;4366699;32;25948;-83
2023/04/07 03:23:13;;;;;;;23.23;13.45;;;;;;;5.28;59.47;99468.09;4367384;32;20120;-84
2023/04/07 03:25:39;;;;;;;25.27;14.75;;;;;;;5.11;59.47;99470.03;4379639;32;20134;-85
2023/04/07 03:28:05;;;;;;;24.80;13.55;;;;;;;5.28;59.47;99469.81;4352579;32;20524;-84
2023/04/07 03:30:30;;;;;;;25.80;13.73;;;;;;;5.44;59.48;99472.16;4378060;32;20134;-85
2023/04/07 03:32:55;;;;;;;26.27;15.35;;;;;;;5.49;59.49;99474.66;4379762;32;20126;-86
2023/04/07 03:35:21;;;;;;;23.20;14.27;;;;;;;5.58;59.49;99468.47;4367092;32;20083;-86
2023/04/07 03:37:46;;;;;;;26.58;15.18;;;;;;;5.29;59.47;99467.19;4366896;32;20142;-86
2023/04/07 03:40:12;;;;;;;22.98;14.38;;;;;;;5.39;59.49;99462.75;4366974;32;20126;-87
2023/04/07 03:42:37;;;;;;;26.45;14.25;;;;;;;5.43;59.48;99466.97;4379726;32;20074;-85
2023/04/07 03:45:03;;;;;;;24.42;14.10;;;;;;;5.63;59.50;99464.94;4367042;32;20124;-85
2023/04/07 03:47:28;;;;;;;26.25;15.20;;;;;;;5.65;59.50;99457.16;4379603;32;20111;-85
2023/04/07 03:49:54;;;;;;;25.92;14.50;;;;;;;5.47;59.49;99461.75;4379525;32;20121;-86
2023/04/07 03:52:19;;;;;;;27.35;14.23;;;;;;;5.53;59.49;99455.62;4367149;32;20471;-84
2023/04/07 03:54:45;;;;;;;25.73;14.05;;;;;;;5.47;59.49;99455.75;4392336;32;37340;-85
2023/04/07 03:57:10;;;;;;;24.65;15.02;;;;;;;5.69;59.50;99451.94;4379552;32;20222;-84
2023/04/07 03:59:36;;;;;;;24.05;13.40;;;;;;;5.62;59.50;99465.81;4366641;32;22397;-85
2023/04/07 04:02:01;;;;;;;25.52;13.27;;;;;;;5.73;59.50;99465.66;4392846;32;20169;-85
2023/04/07 04:04:27;;;;;;;26.87;14.10;;;;;;;5.58;59.49;99468.47;4366509;32;20105;-85
2023/04/07 04:06:52;;;;;;;25.58;14.77;;;;;;;5.55;59.49;99466.78;4379062;32;20630;-85
2023/04/07 04:09:17;;;;;;;21.87;13.70;;;;;;;5.66;59.49;99469.19;4366523;32;23451;-86
2023/04/07 04:11:43;;;;;;;27.48;14.70;;;;;;;5.49;59.49;99469.47;4379190;32;20117;-84
2023/04/07 04:14:08;;;;;;;28.52;15.55;;;;;;;5.40;59.49;99477.34;4366886;32;20332;-84
2023/04/07 04:16:36;;;;;;;25.25;15.45;;;;;;;5.42;59.48;99473.88;4366474;32;22506;-84
2023/04/07 04:19:02;;;;;;;26.17;14.50;;;;;;;5.34;59.48;99472.28;4393340;32;20153;-84
2023/04/07 04:21:27;;;;;;;31.17;16.92;;;;;;;5.40;59.48;99470.47;4366865;32;20185;-85
2023/04/07 04:23:52;;;;;;;28.23;16.00;;;;;;;5.35;59.48;99476.56;4366494;32;22477;-86
2023/04/07 04:26:18;;;;;;;28.02;16.73;;;;;;;5.34;59.48;99483.47;4351684;32;20154;-86
2023/04/07 04:28:43;;;;;;;34.80;23.75;;;;;;;5.45;59.48;99480.75;4387142;32;20125;-85
2023/04/07 04:31:09;;;;;;;30.98;17.67;;;;;;;5.44;59.48;99487.62;4392481;32;21490;-85
2023/04/07 04:33:35;;;;;;;31.08;16.42;;;;;;;5.53;59.49;99484.03;4366695;32;20427;-85
2023/04/07 04:36:00;;;;;;;27.02;15.52;;;;;;;5.63;59.50;99487.31;4351759;32;20357;-85
2023/04/07 04:38:25;;;;;;;23.27;14.60;;;;;;;5.72;59.50;99487.19;4364514;32;20177;-85
2023/04/07 04:40:51;;;;;;;23.67;14.65;;;;;;;5.85;59.50;99483.50;4378068;32;20149;-85
2023/04/07 04:43:16;;;;;;;28.15;15.25;;;;;;;5.65;59.49;99494.16;4351720;32;20079;-85
2023/04/07 04:45:42;;;;;;;30.33;16.00;;;;;;;5.79;59.50;99489.63;4367143;32;27557;-85
2023/04/07 04:48:08;;;;;;;27.65;15.15;;;;;;;5.87;59.51;99482.59;4366591;32;20193;-84
2023/04/07 04:50:33;;;;;;;24.67;14.57;;;;;;;5.96;59.51;99491.13;4378897;32;20122;-85
2023/04/07 04:52:58;;;;;;;27.50;16.08;;;;;;;5.91;59.52;99498.06;4351546;32;20108;-84
2023/04/07 04:55:24;;;;;;;24.70;14.95;;;;;;;6.08;59.52;99493.47;4363741;32;20170;-84
2023/04/07 04:57:49;;;;;;;23.33;15.13;;;;;;;5.80;59.50;99500.81;4357467;32;20420;-84
2023/04/07 05:00:15;;;;;;;28.05;15.68;;;;;;;5.72;59.49;99495.78;4366211;32;20440;-84
2023/04/07 05:02:41;;;;;;;25.35;15.00;;;;;;;5.91;59.51;99501.50;4366533;32;20531;-85
2023/04/07 05:05:07;;;;;;;31.05;15.18;;;;;;;5.72;59.50;99500.94;4378634;32;20110;-83
2023/04/07 05:07:32;;;;;;;26.00;15.52;;;;;;;5.80;59.50;99496.50;4366052;32;20093;-85
2023/04/07 05:09:58;;;;;;;31.00;16.17;;;;;;;5.79;59.51;99502.53;4366018;32;20110;-88
2023/04/07 05:12:23;;;;;;;23.70;15.18;;;;;;;5.96;59.51;99511.78;4350539;32;24851;-86
2023/04/07 05:14:48;;;;;;;25.42;15.32;;;;;;;5.87;59.50;99520.47;4363588;32;20133;-86
2023/04/07 05:17:14;;;;;;;28.55;16.98;;;;;;;5.97;59.51;99523.81;4372743;32;23364;-86
2023/04/07 05:19:40;;;;;;;25.12;14.93;;;;;;;5.86;59.51;99514.47;4367760;32;20122;-86
2023/04/07 05:22:05;;;;;;;28.10;14.98;;;;;;;5.73;59.50;99507.81;4368097;32;20150;-86
2023/04/07 05:24:30;;;;;;;28.10;15.88;;;;;;;5.75;59.50;99502.62;4367280;32;23919;-86
2023/04/07 05:26:56;;;;;;;27.40;15.95;;;;;;;5.80;59.50;99506.81;4393466;32;20437;-86
2023/04/07 05:29:22;;;;;;;25.33;14.65;;;;;;;6.05;59.51;99514.19;4367869;32;20118;-86
2023/04/07 05:31:47;;;;;;;27.98;15.15;;;;;;;5.98;59.50;99517.78;4353006;32;20091;-86
2023/04/07 05:34:12;;;;;;;31.98;17.17;;;;;;;5.94;59.51;99522.16;4379700;32;20122;-86
2023/04/07 05:36:38;;;;;;;27.92;16.55;;;;;;;6.01;59.52;99531.47;4367209;32;27149;-86
2023/04/07 05:39:03;;;;;;;24.63;15.68;;;;;;;5.96;59.51;99538.47;4367814;32;20111;-86
2023/04/07 05:41:29;;;;;;;28.80;16.67;;;;;;;5.94;59.51;99532.47;4380499;32;20091;-86
2023/04/07 05:43:54;;;;;;;28.62;16.35;;;;;;;6.03;59.52;99524.56;4367298;32;20134;-85
2023/04/07 05:46:20;;;;;;;30.67;15.98;;;;;;;6.11;59.52;99527.84;4380011;32;20155;-86
2023/04/07 05:48:45;;;;;;;31.25;17.08;;;;;;;6.17;59.52;99526.91;4366931;32;23590;-85
2023/04/07 05:51:11;;;;;;;29.23;16.92;;;;;;;6.05;59.51;99527.09;4367504;32;20145;-87
2023/04/07 05:53:36;;;;;;;32.92;16.83;;;;;;;5.95;59.51;99525.56;4367146;32;25253;-86
2023/04/07 05:56:01;;;;;;;31.37;17.55;;;;;;;5.91;59.52;99529.91;4379493;32;35793;-86
2023/04/07 05:58:27;;;;;;;29.65;16.73;;;;;;;6.09;59.52;99536.50;4367292;32;23693;-86
2023/04/07 06:00:52;;;;;;;27.40;16.67;;;;;;;5.96;59.51;99532.44;4367936;32;20122;-86
2023/04/07 06:03:18;;;;;;;27.52;17.30;;;;;;;6.07;59.52;99533.09;4355271;32;20168;-86
2023/04/07 06:05:45;;;;;;;32.15;17.60;;;;;;;6.31;59.53;99524.91;4379771;32;20142;-86
2023/04/07 06:08:11;;;;;;;31.98;17.48;;;;;;;6.37;59.54;99522.22;4380068;32;20482;-86
2023/04/07 06:10:36;;;;;;;30.40;16.65;;;;;;;6.20;59.53;99532.03;4367551;32;20118;-85
2023/04/07 06:13:01;;;;;;;32.25;16.95;;;;;;;6.17;59.52;99526.91;4354917;32;20152;-85
2023/04/07 06:15:27;;;;;;;33.42;17.87;;;;;;;6.26;59.53;99520.72;4380130;32;20101;-86
2023/04/07 06:17:52;;;;;;;32.83;18.85;;;;;;;6.42;59.53;99527.31;4366956;32;26228;-86
2023/04/07 06:20:20;;;;;;;34.22;19.08;;;;;;;6.44;59.54;99521.22;4352014;32;29526;-85
2023/04/07 06:22:46;;;;;;;30.83;18.23;;;;;;;6.40;59.53;99517.00;4367593;32;20464;-86
2023/04/07 06:25:11;;;;;;;29.55;16.55;;;;;;;6.46;59.54;99516.88;4367343;32;20137;-86
2023/04/07 06:27:36;;;;;;;26.12;15.77;;;;;;;6.60;59.55;99526.94;4366408;32;36927;-86
2023/04/07 06:30:02;;;;;;;31.00;17.73;;;;;;;6.62;59.54;99524.31;4379743;32;21469;-87
2023/04/07 06:32:27;;;;;;;27.17;16.83;;;;;;;6.64;59.55;99522.59;4379871;32;20161;-86
2023/04/07 06:34:53;;;;;;;33.53;17.92;;;;;;;6.63;59.55;99516.56;4351653;32;36801;-86
2023/04/07 06:37:18;;;;;;;34.88;19.02;;;;;;;6.78;59.55;99521.41;4389540;32;20200;-85
2023/04/07 06:39:44;;;;;;;30.65;17.45;;;;;;;6.91;59.57;99526.34;4367269;32;20090;-87
2023/04/07 06:42:09;;;;;;;31.42;18.73;;;;;;;7.12;59.58;99523.31;4367201;32;20098;-86
2023/04/07 06:44:35;;;;;;;27.20;16.23;;;;;;;7.13;59.58;99531.94;4367646;32;20110;-86
2023/04/07 06:47:00;;;;;;;28.58;16.40;;;;;;;6.85;59.56;99529.88;4354092;32;28305;-86
2023/04/07 06:49:25;;;;;;;31.12;17.50;;;;;;;6.88;59.57;99535.03;4352335;32;20119;-87
2023/04/07 06:51:51;;;;;;;31.55;16.58;;;;;;;6.87;59.56;99535.06;4376890;32;20161;-86
2023/04/07 06:54:16;;;;;;;28.33;15.55;;;;;;;7.03;59.58;99531.25;4367335;32;20479;-87
2023/04/07 06:56:42;;;;;;;28.10;16.62;;;;;;;7.08;59.57;99530.25;4379574;32;20094;-85
2023/04/07 06:59:07;;;;;;;27.50;15.48;;;;;;;6.96;59.57;99545.22;4367633;32;20116;-87
2023/04/07 07:01:33;;;;;;;28.87;16.12;;;;;;;7.03;59.58;99541.59;4354280;32;20102;-86
2023/04/07 07:04:01;;;;;;;27.45;15.45;;;;;;;7.08;59.57;99545.78;4378520;32;37380;-85
2023/04/07 07:06:26;;;;;;;25.33;15.00;;;;;;;7.17;59.58;99546.50;4380003;32;20086;-86
2023/04/07 07:08:52;;;;;;;33.60;16.75;;;;;;;7.32;59.58;99549.59;4366613;32;21473;-86
2023/04/07 07:11:18;;;;;;;24.92;15.18;;;;;;;7.43;59.60;99551.97;4367170;32;20640;-85
2023/04/07 07:13:44;;;;;;;29.75;17.17;;;;;;;7.63;59.61;99554.94;4367285;32;20128;-86
2023/04/07 07:16:11;;;;;;;25.00;14.40;;;;;;;7.77;59.62;99551.16;4367162;32;20474;-87
2023/04/07 07:18:37;;;;;;;27.23;15.32;;;;;;;7.90;59.62;99547.41;4352749;32;20099;-86
2023/04/07 07:21:02;;;;;;;26.27;15.50;;;;;;;7.83;59.62;99558.81;4377245;32;20203;-87
2023/04/07 07:23:27;;;;;;;29.27;15.57;;;;;;;7.69;59.62;99562.56;4391826;32;20470;-86
2023/04/07 07:25:53;;;;;;;29.58;16.45;;;;;;;7.65;59.61;99563.53;4367069;32;20393;-86
2023/04/07 07:28:20;;;;;;;26.87;16.92;;;;;;;7.63;59.61;99567.91;4367315;32;20100;-87
2023/04/07 07:30:45;;;;;;;26.02;15.23;;;;;;;7.60;59.60;99575.75;4379855;32;20110;-86
2023/04/07 07:33:11;;;;;;;26.27;16.58;;;;;;;7.39;59.58;99574.47;4366903;32;20168;-86
2023/04/07 07:35:36;;;;;;;29.77;15.88;;;;;;;7.58;59.60;99577.53;4366941;32;20158;-86
2023/04/07 07:38:02;;;;;;;30.17;17.35;;;;;;;7.61;59.61;99577.44;4354004;32;20481;-86
2023/04/07 07:40:27;;;;;;;32.60;17.70;;;;;;;7.91;59.61;99581.06;4379486;32;20095;-86
2023/04/07 07:42:53;;;;;;;28.00;16.55;;;;;;;8.04;59.63;99585.94;4379794;32;20094;-87
2023/04/07 07:45:37;;;;;;;26.35;17.17;;;;;;;8.14;59.63;99584.84;4367085;32;20136;-86
2023/04/07 07:48:03;;;;;;;37.47;19.65;;;;;;;8.22;59.64;99586.34;4379753;32;20102;-87
2023/04/07 07:50:28;;;;;;;31.00;19.80;;;;;;;8.19;59.64;99594.19;4379060;32;25823;-87
2023/04/07 07:52:54;;;;;;;27.62;17.12;;;;;;;8.28;59.64;99587.91;4379713;32;20094;-86
2023/04/07 07:55:19;;;;;;;30.92;18.10;;;;;;;8.49;59.65;99578.78;4378861;32;25435;-86
2023/04/07 07:57:45;;;;;;;28.00;17.25;;;;;;;8.59;59.67;99583.69;4393310;32;20376;-87
2023/04/07 08:00:11;;;;;;;23.42;15.02;;;;;;;8.61;59.66;99592.28;4366930;32;20502;-86
2023/04/07 08:02:37;;;;;;;26.87;15.80;;;;;;;8.82;59.67;99587.41;4393418;32;20102;-87
2023/04/07 08:05:03;;;;;;;25.20;14.48;;;;;;;8.83;59.68;99589.97;4366820;32;20110;-86
2023/04/07 08:07:28;;;;;;;24.92;16.15;;;;;;;8.96;59.68;99597.41;4378964;32;20099;-83
2023/04/07 08:09:54;;;;;;;26.20;14.75;;;;;;;9.05;59.69;99610.13;4354147;32;26346;-83
2023/04/07 08:12:19;;;;;;;27.55;16.02;;;;;;;9.10;59.69;99608.25;4389770;32;20113;-85
2023/04/07 08:14:45;;;;;;;26.08;15.35;;;;;;;9.28;59.70;99614.69;4366554;32;20427;-84
2023/04/07 08:17:11;;;;;;;24.80;15.00;;;;;;;9.24;59.70;99616.53;4366527;32;20087;-84
2023/04/07 08:19:37;;;;;;;29.58;16.37;;;;;;;9.27;59.70;99612.97;4379002;32;20111;-85
2023/04/07 08:22:02;;;;;;;26.42;16.37;;;;;;;9.00;59.68;99612.03;4366702;32;20336;-85
2023/04/07 08:24:28;;;;;;;24.80;15.40;;;;;;;9.32;59.70;99609.34;4384755;32;20110;-84
2023/04/07 08:26:53;;;;;;;21.73;14.65;;;;;;;9.56;59.71;99609.53;4378350;32;20121;-85
2023/04/07 08:29:18;;;;;;;24.12;15.40;;;;;;;9.65;59.72;99606.63;4392282;32;20166;-84
2023/04/07 08:31:44;;;;;;;28.70;16.77;;;;;;;9.54;59.71;99614.75;4364929;32;20131;-84
2023/04/07 08:34:09;;;;;;;28.23;15.68;;;;;;;9.33;59.70;99620.59;4364697;32;34996;-85
2023/04/07 08:36:34;;;;;;;510.48;285.52;;;;;;;9.40;59.70;99622.09;4365476;32;22207;-85
2023/04/07 08:39:01;;;;;;;40.75;26.67;;;;;;;9.57;59.70;99608.62;4364854;32;20132;-84
2023/04/07 08:41:29;;;;;;;28.80;19.73;;;;;;;9.62;59.71;99617.12;4365573;32;20153;-85
2023/04/07 08:43:56;;;;;;;23.67;15.70;;;;;;;9.60;59.72;99616.31;4365984;32;20125;-83
2023/04/07 08:46:22;;;;;;;28.08;16.52;;;;;;;9.68;59.72;99622.97;4365856;32;20109;-84
2023/04/07 08:48:49;;;;;;;28.90;16.45;;;;;;;9.75;59.73;99618.47;4365146;32;20114;-84
2023/04/07 08:51:15;;;;;;;26.12;17.42;;;;;;;9.83;59.73;99624.28;4365619;32;20102;-83
2023/04/07 08:53:43;;;;;;;28.75;17.10;;;;;;;9.74;59.73;99629.75;4364321;32;20120;-85
2023/04/07 08:56:10;;;;;;;27.73;17.00;;;;;;;9.47;59.71;99627.09;4364216;32;20417;-85
2023/04/07 08:58:36;;;;;;;28.05;16.52;;;;;;;9.92;59.73;99623.12;4365491;32;20140;-85
2023/04/07 09:01:03;;;;;;;28.52;16.73;;;;;;;10.08;59.74;99617.41;4363805;32;20698;-85
2023/04/07 09:03:31;;;;;;;27.73;17.12;;;;;;;10.08;59.74;99612.19;4376532;32;20090;-85
2023/04/07 09:05:57;;;;;;;29.08;16.67;;;;;;;9.98;59.74;99620.34;4350905;32;20111;-85
2023/04/07 09:08:22;;;;;;;28.15;16.52;;;;;;;10.13;59.75;99620.69;4362614;32;20098;-85
2023/04/07 09:10:48;;;;;;;29.48;16.15;;;;;;;9.99;59.73;99622.91;4383725;32;23789;-85
2023/04/07 09:13:13;;;;;;;31.80;18.42;;;;;;;9.78;59.72;99621.81;4350657;32;20234;-86
2023/04/07 09:15:40;;;;;;;26.70;16.20;;;;;;;9.62;59.72;99623.16;4365025;32;20133;-85
2023/04/07 09:18:05;;;;;;;26.92;16.48;;;;;;;9.75;59.73;99623.66;4389832;32;20524;-85
2023/04/07 09:20:55;;;;;;;26.25;16.55;;;;;;;9.86;59.73;99618.97;4378477;32;20161;-86
2023/04/07 09:23:31;;;;;;;51.60;34.25;;;;;;;9.78;59.72;99616.62;4378274;32;20184;-86
2023/04/07 09:26:17;;;;;;;23.65;15.70;;;;;;;9.87;59.74;99610.28;4366007;32;20117;-85
2023/04/07 09:28:46;;;;;;;24.73;15.57;;;;;;;9.94;59.74;99619.59;4391281;32;26563;-86
2023/04/07 09:31:11;;;;;;;24.57;15.80;;;;;;;9.90;59.73;99620.56;4353153;32;20098;-86
2023/04/07 09:33:37;;;;;;;36.58;26.15;;;;;;;9.84;59.73;99616.41;4375613;32;20227;-86
2023/04/07 09:36:04;;;;;;;28.27;16.35;;;;;;;9.85;59.73;99620.72;4362989;32;20102;-86
2023/04/07 09:38:33;;;;;;;22.83;14.73;;;;;;;9.69;59.73;99623.81;4363064;32;20102;-86
2023/04/07 09:41:07;;;;;;;26.02;15.68;;;;;;;9.90;59.73;99625.78;4375399;32;20124;-86
2023/04/07 09:43:37;;;;;;;25.02;15.20;;;;;;;9.93;59.74;99622.22;4376751;32;20556;-86
2023/04/07 09:46:10;;;;;;;27.65;16.15;;;;;;;9.99;59.74;99627.25;4350739;32;20098;-84
2023/04/07 09:48:36;;;;;;;25.62;15.27;;;;;;;9.95;59.74;99623.06;4375262;32;20110;-84
2023/04/07 09:51:14;;;;;;;24.50;15.35;;;;;;;10.10;59.75;99626.00;4362479;32;27231;-85
2023/04/07 09:53:47;;;;;;;25.00;14.63;;;;;;;10.01;59.75;99623.69;4375344;32;20114;-86
2023/04/07 09:56:15;;;;;;;25.45;15.38;;;;;;;9.95;59.74;99626.50;4362715;32;20422;-84
2023/04/07 09:58:40;;;;;;;24.92;15.48;;;;;;;9.75;59.73;99626.25;4362577;32;20102;-84
2023/04/07 10:01:07;;;;;;;25.17;15.32;;;;;;;10.02;59.74;99628.00;4377080;32;20110;-85
2023/04/07 10:03:33;;;;;;;24.87;15.98;;;;;;;9.93;59.73;99625.66;4390112;32;20452;-85
2023/04/07 10:05:59;;;;;;;27.05;16.08;;;;;;;10.01;59.73;99623.69;4365306;32;20110;-85
2023/04/07 10:08:25;;;;;;;30.02;17.75;;;;;;;10.27;59.75;99620.28;4350100;32;20130;-86
2023/04/07 10:10:51;;;;;;;24.48;15.77;;;;;;;10.22;59.75;99617.00;4371793;32;20103;-86
2023/04/07 10:13:17;;;;;;;25.25;15.95;;;;;;;10.42;59.76;99622.41;4364850;32;20148;-86
2023/04/07 10:15:42;;;;;;;21.70;15.82;;;;;;;10.34;59.76;99624.38;4377359;32;20170;-86
2023/04/07 10:18:08;;;;;;;24.77;16.65;;;;;;;10.57;59.77;99615.81;4377194;32;20178;-86
2023/04/07 10:20:33;;;;;;;21.40;14.18;;;;;;;10.79;59.78;99615.91;4365000;32;20130;-85
2023/04/07 10:23:03;;;;;;;22.52;14.00;;;;;;;10.96;59.79;99617.94;4364985;32;20377;-86
2023/04/07 10:25:28;;;;;;;24.75;14.55;;;;;;;11.08;59.80;99617.47;4365221;32;20459;-86
2023/04/07 10:27:58;;;;;;;24.30;14.30;;;;;;;11.38;59.82;99621.59;4363960;32;37726;-85
2023/04/07 10:30:25;;;;;;;23.52;15.25;;;;;;;11.54;59.83;99614.03;4352878;32;20141;-86
2023/04/07 10:32:51;;;;;;;26.75;14.38;;;;;;;11.59;59.82;99613.84;4364961;32;20114;-87
2023/04/07 10:35:16;;;;;;;21.95;14.05;;;;;;;11.88;59.84;99615.38;4364971;32;20489;-86
2023/04/07 10:38:12;;;;;;;24.40;14.43;;;;;;;11.73;59.83;99610.72;4364790;32;20163;-86
2023/04/07 10:40:38;;;;;;;21.15;13.62;;;;;;;11.87;59.84;99616.28;4378508;32;20111;-86
2023/04/07 10:43:10;;;;;;;22.75;14.07;;;;;;;11.95;59.84;99620.28;4350188;32;20141;-86
2023/04/07 10:45:45;;;;;;;21.30;13.45;;;;;;;12.03;59.85;99621.72;4377301;32;20137;-87
2023/04/07 10:48:11;;;;;;;35.83;21.87;;;;;;;12.06;59.86;99617.22;4378545;32;20087;-87
2023/04/07 10:50:37;;;;;;;22.35;14.38;;;;;;;11.90;59.84;99618.78;4365010;32;20493;-87
2023/04/07 10:53:11;;;;;;;20.98;13.80;;;;;;;11.87;59.84;99626.72;4365136;32;20095;-87
2023/04/07 10:55:40;;;;;;;20.35;12.75;;;;;;;11.86;59.84;99625.88;4365266;32;20091;-87
2023/04/07 10:58:28;;;;;;;22.00;14.57;;;;;;;11.65;59.83;99621.44;4350529;32;20107;-86
2023/04/07 11:00:56;;;;;;;21.85;13.35;;;;;;;11.75;59.84;99620.19;4362836;32;20098;-86
2023/04/07 11:03:22;;;;;;;18.98;13.07;;;;;;;12.15;59.86;99616.03;4376560;32;20110;-86
2023/04/07 11:05:48;;;;;;;21.35;12.73;;;;;;;12.38;59.87;99615.09;4365030;32;20108;-86
2023/04/07 11:08:13;;;;;;;20.50;12.52;;;;;;;12.27;59.86;99611.13;4349675;32;20135;-85
2023/04/07 11:10:38;;;;;;;22.00;14.40;;;;;;;12.39;59.87;99616.78;4361163;32;37918;-85
2023/04/07 11:13:05;;;;;;;19.83;12.98;;;;;;;12.51;59.88;99611.87;4361008;32;20181;-85
2023/04/07 11:15:30;;;;;;;26.15;13.18;;;;;;;12.54;59.88;99617.00;4382227;32;20149;-85
2023/04/07 11:18:12;;;;;;;21.25;13.38;;;;;;;12.51;59.88;99614.50;4377072;32;20118;-85
2023/04/07 11:20:52;;;;;;;19.90;13.20;;;;;;;12.75;59.89;99619.59;4377399;32;20090;-86
2023/04/07 11:23:18;;;;;;;18.17;11.15;;;;;;;12.72;59.88;99612.75;4377231;32;20083;-86